Time;durP1;ratioP1;P1;durP2;ratioP2;P2;SDS_P1;SDS_P2;PMS_P1;PMS_P2;Temp;Humidity;BMP_temperature;BMP_pressure;BME280_temperature;BME280_humidity;BME280_pressure;Samples;Min_cycle;Max_cycle;Signal;HPM_P1;HPM_P2
2022/12/19 00:01:18;;;;;;;10.13;7.70;;;;;;;-7.01;94.80;101958.54;1712271;83;21030;-88
2022/12/19 00:03:50;;;;;;;10.90;8.20;;;;;;;-7.02;95.00;101964.69;1691750;84;21034;-85
2022/12/19 00:06:16;;;;;;;15.20;9.18;;;;;;;-7.05;95.35;101963.91;1692065;84;21126;-89
2022/12/19 00:08:44;;;;;;;10.90;7.27;;;;;;;-7.05;95.64;101963.91;1721423;82;21514;-83
2022/12/19 00:11:12;;;;;;;12.03;7.73;;;;;;;-7.03;95.85;101967.77;1719539;83;21011;-83
2022/12/19 00:13:40;;;;;;;10.80;7.27;;;;;;;-7.02;95.96;101956.84;1692003;84;21042;-84
2022/12/19 00:16:15;;;;;;;11.47;8.13;;;;;;;-7.05;96.14;101969.63;1691604;84;21015;-85
2022/12/19 00:18:43;;;;;;;10.27;7.40;;;;;;;-7.06;96.37;101953.09;1719861;82;20999;-85
2022/12/19 00:21:16;;;;;;;8.17;7.23;;;;;;;-7.09;96.44;101948.02;1714656;83;21180;-83
2022/12/19 00:23:42;;;;;;;9.20;7.08;;;;;;;-7.05;96.63;101960.48;1692185;84;21075;-84
2022/12/19 00:26:15;;;;;;;7.63;6.00;;;;;;;-7.03;96.70;101960.38;1699400;83;21085;-83
2022/12/19 00:28:43;;;;;;;11.83;7.53;;;;;;;-7.07;96.72;101950.09;1726544;82;20980;-85
2022/12/19 00:31:13;;;;;;;7.47;5.80;;;;;;;-7.02;96.83;101968.61;1716721;82;21602;-82
2022/12/19 00:33:39;;;;;;;9.93;7.23;;;;;;;-7.07;97.07;101974.09;1709501;83;21519;-83
2022/12/19 00:36:10;;;;;;;8.67;6.30;;;;;;;-7.07;97.27;101950.09;1726521;83;21034;-83
2022/12/19 00:38:38;;;;;;;8.43;6.17;;;;;;;-7.04;97.51;101971.30;1725914;82;21031;-83
2022/12/19 00:41:16;;;;;;;10.00;7.10;;;;;;;-7.01;97.75;101970.31;1725638;83;22163;-85
2022/12/19 00:43:43;;;;;;;8.47;6.30;;;;;;;-6.98;97.80;101974.91;1664038;85;21032;-86
2022/12/19 00:46:12;;;;;;;11.60;7.50;;;;;;;-6.94;98.00;101993.89;1678831;85;21820;-84
2022/12/19 00:48:41;;;;;;;9.87;6.93;;;;;;;-6.95;98.24;101985.19;1677933;84;21552;-81
2022/12/19 00:51:15;;;;;;;11.20;6.57;;;;;;;-6.92;98.30;101982.44;1671964;85;22252;-83
2022/12/19 00:53:43;;;;;;;6.57;5.93;;;;;;;-6.91;98.61;101984.59;1674018;85;21552;-86
2022/12/19 00:56:13;;;;;;;10.23;8.97;;;;;;;-6.94;98.83;101972.96;1679201;85;21040;-82
2022/12/19 00:58:40;;;;;;;12.53;7.67;;;;;;;-6.93;99.04;102005.59;1679310;84;21119;-84
2022/12/19 01:01:15;;;;;;;9.03;7.03;;;;;;;-6.87;99.20;101982.19;1671785;85;21033;-85
2022/12/19 01:03:41;;;;;;;7.42;6.67;;;;;;;-6.82;99.29;101987.56;1648841;87;20993;-84
2022/12/19 01:06:08;;;;;;;8.47;6.67;;;;;;;-6.74;99.34;101993.67;1697661;83;21090;-86
2022/12/19 01:08:36;;;;;;;5.60;5.10;;;;;;;-6.71;99.27;101970.80;1725872;82;21028;-87
2022/12/19 01:11:03;;;;;;;8.63;6.63;;;;;;;-6.66;99.28;101970.55;1724865;83;21148;-85
2022/12/19 01:13:31;;;;;;;8.00;6.77;;;;;;;-6.59;99.22;101982.84;1678955;84;21028;-82
2022/12/19 01:16:04;;;;;;;7.67;6.83;;;;;;;-6.53;99.22;101992.98;1679297;85;21023;-85
2022/12/19 01:18:31;;;;;;;;;;;;;;;-6.53;99.00;102000.84;1683532;84;20950;-83
2022/12/19 01:21:00;;;;;;;7.60;5.47;;;;;;;-6.49;99.03;102004.51;1683429;84;20124;-81
2022/12/19 01:23:26;;;;;;;8.30;5.00;;;;;;;-6.47;98.95;102022.27;1683498;85;21145;-83
2022/12/19 01:25:54;;;;;;;5.87;5.33;;;;;;;-6.46;98.99;102000.41;1683409;82;20966;-82
2022/12/19 01:28:22;;;;;;;5.23;4.70;;;;;;;-6.41;99.07;102014.55;1673161;81;20969;-90
2022/12/19 01:30:49;;;;;;;6.27;5.53;;;;;;;-6.40;99.02;102032.80;1695860;80;21001;-90
2022/12/19 01:33:16;;;;;;;7.37;5.63;;;;;;;-6.37;98.99;102015.60;1711069;82;21046;-89
2022/12/19 01:35:43;;;;;;;5.90;5.00;;;;;;;-6.34;98.96;102004.13;1696230;84;21063;-87
2022/12/19 01:38:16;;;;;;;5.37;4.80;;;;;;;-6.31;98.93;102004.80;1725227;83;20935;-88
2022/12/19 01:40:54;;;;;;;5.60;5.08;;;;;;;-6.25;98.96;102003.62;1726335;82;20950;-86
2022/12/19 01:43:23;;;;;;;9.00;5.87;;;;;;;-6.24;98.71;102007.47;1703742;82;20987;-90
2022/12/19 01:45:57;;;;;;;8.13;6.77;;;;;;;-6.22;98.69;102009.98;1697196;84;21515;-84
2022/12/19 01:48:35;;;;;;;7.43;4.83;;;;;;;-6.19;98.73;102010.65;1726648;83;21118;-86
2022/12/19 01:51:07;;;;;;;6.73;5.60;;;;;;;-6.15;98.60;102019.66;1727863;82;21561;-85
2022/12/19 01:53:40;;;;;;;6.37;5.67;;;;;;;-6.16;98.48;102013.58;1727823;82;20947;-83
2022/12/19 01:56:08;;;;;;;6.63;5.13;;;;;;;-6.13;98.56;102029.58;1728872;82;21070;-86
2022/12/19 01:58:37;;;;;;;9.20;6.63;;;;;;;-6.09;98.58;102038.97;1729768;82;21054;-82
2022/12/19 02:01:04;;;;;;;5.77;4.30;;;;;;;-6.04;98.60;102035.64;1729739;83;21188;-83
2022/12/19 02:03:32;;;;;;;6.03;4.37;;;;;;;-6.03;98.46;102034.68;1730750;81;21515;-86
2022/12/19 02:05:59;;;;;;;5.73;5.17;;;;;;;-6.00;98.43;102031.45;1729789;83;20930;-83
2022/12/19 02:08:25;;;;;;;5.60;4.47;;;;;;;-5.97;98.41;102035.66;1729661;82;20993;-89
2022/12/19 02:10:52;;;;;;;5.67;4.77;;;;;;;-5.95;98.22;102029.41;1729494;82;21003;-86
2022/12/19 02:13:19;;;;;;;4.80;4.20;;;;;;;-5.94;98.23;102036.31;1728997;82;21182;-81
2022/12/19 02:16:28;;;;;;;6.43;4.93;;;;;;;-5.93;98.06;102043.72;1729239;82;21514;-85
2022/12/19 02:19:31;;;;;;;5.73;5.17;;;;;;;-5.90;97.92;102039.63;1700344;84;21045;-86
2022/12/19 02:22:16;;;;;;;6.47;4.97;;;;;;;-5.90;97.83;102038.32;1724745;82;20994;-84
2022/12/19 02:25:34;;;;;;;9.00;6.10;;;;;;;-5.99;97.39;102038.34;1719246;82;21079;-90
2022/12/19 02:28:27;;;;;;;6.70;5.00;;;;;;;-6.01;97.55;102058.56;1725657;83;21231;-86
2022/12/19 02:31:02;;;;;;;6.83;5.20;;;;;;;-6.05;97.63;102041.34;1720999;82;21031;-88
2022/12/19 02:33:44;;;;;;;7.03;5.23;;;;;;;-6.00;97.80;102061.57;1708558;83;21051;-82
2022/12/19 02:36:21;;;;;;;9.57;5.63;;;;;;;-5.99;97.87;102048.83;1729437;82;20962;-83
2022/12/19 02:39:09;;;;;;;7.60;5.03;;;;;;;-5.91;97.98;102054.97;1678746;84;21119;-83
2022/12/19 02:41:43;;;;;;;11.83;7.13;;;;;;;-5.90;97.81;102077.13;1715992;82;21039;-82
2022/12/19 02:44:19;;;;;;;7.00;4.93;;;;;;;-5.90;97.74;102078.44;1701683;83;21546;-84
2022/12/19 02:46:46;;;;;;;11.23;7.03;;;;;;;-5.89;97.76;102079.29;1710107;83;21067;-85
2022/12/19 02:49:13;;;;;;;9.40;5.77;;;;;;;-5.93;97.79;102075.16;1698621;84;21093;-83
2022/12/19 02:51:39;;;;;;;5.17;4.30;;;;;;;-5.89;97.99;102088.45;1729163;82;21018;-83
2022/12/19 02:54:07;;;;;;;8.37;5.13;;;;;;;-5.82;98.08;102087.16;1729351;82;21126;-83
2022/12/19 02:56:48;;;;;;;8.93;5.67;;;;;;;-5.78;98.15;102086.06;1716583;82;20963;-89
2022/12/19 07:02:47;;;;;;;17.73;11.17;;;;;;;-5.47;100.00;102224.98;1756280;81;43117;-91
2022/12/19 07:05:15;;;;;;;14.15;10.05;;;;;;;-5.38;100.00;102231.49;1734312;82;22292;-86
2022/12/19 07:07:42;;;;;;;16.77;11.60;;;;;;;-5.24;100.00;102232.03;1728371;81;21897;-89
2022/12/19 07:10:09;;;;;;;13.90;8.97;;;;;;;-5.14;100.00;102231.43;1730694;81;21014;-89
2022/12/19 07:12:36;;;;;;;16.23;9.47;;;;;;;-5.02;100.00;102237.75;1729729;83;20947;-85
2022/12/19 07:15:03;;;;;;;16.23;8.67;;;;;;;-4.92;100.00;102232.36;1730124;82;20970;-86
2022/12/19 07:17:32;;;;;;;12.23;9.43;;;;;;;-4.82;100.00;102228.73;1730395;81;20993;-78
2022/12/19 07:19:59;;;;;;;13.50;8.87;;;;;;;-4.75;100.00;102230.09;1730690;81;21226;-80
2022/12/19 07:22:28;;;;;;;12.70;8.83;;;;;;;-4.64;100.00;102228.50;1730650;83;20993;-84
2022/12/19 07:24:54;;;;;;;14.07;9.30;;;;;;;-4.59;100.00;102235.64;1730764;83;21005;-82
2022/12/19 07:27:21;;;;;;;14.40;9.90;;;;;;;-4.55;100.00;102241.55;1731260;83;21029;-81
2022/12/19 07:29:48;;;;;;;16.00;9.37;;;;;;;-4.51;100.00;102237.34;1731745;81;20998;-83
2022/12/19 07:32:14;;;;;;;13.03;8.57;;;;;;;-4.43;100.00;102242.16;1732498;81;21072;-81
2022/12/19 07:34:41;;;;;;;14.80;9.80;;;;;;;-4.35;100.00;102253.52;1731648;83;21010;-78
2022/12/19 07:37:07;;;;;;;14.50;10.10;;;;;;;-4.30;100.00;102244.89;1731215;83;21004;-78
2022/12/19 07:39:34;;;;;;;14.30;9.03;;;;;;;-4.25;100.00;102267.80;1730647;83;20978;-76
2022/12/19 07:42:00;;;;;;;14.20;8.80;;;;;;;-4.22;99.60;102268.45;1702127;82;21633;-78
2022/12/19 07:44:32;;;;;;;11.23;8.57;;;;;;;-4.18;99.26;102273.92;1704001;82;21116;-82
2022/12/19 07:46:58;;;;;;;13.47;9.90;;;;;;;-4.10;98.75;102276.08;1730265;81;21072;-79
2022/12/19 07:49:25;;;;;;;18.73;11.33;;;;;;;-4.08;98.27;102268.97;1729370;81;21045;-76
2022/12/19 07:51:54;;;;;;;16.20;8.50;;;;;;;-4.03;97.99;102278.23;1755929;81;20962;-79
2022/12/19 07:54:21;;;;;;;12.80;9.27;;;;;;;-3.98;97.49;102283.25;1761212;81;21042;-77
2022/12/19 07:56:47;;;;;;;13.60;10.63;;;;;;;-3.94;97.03;102281.27;1761504;81;21559;-74
2022/12/19 07:59:14;;;;;;;17.50;10.13;;;;;;;-3.90;96.87;102286.25;1761209;81;21644;-77
2022/12/19 08:01:40;;;;;;;14.13;9.60;;;;;;;-3.86;96.48;102282.48;1762705;80;20937;-75
2022/12/19 08:04:08;;;;;;;14.63;10.73;;;;;;;-3.85;95.66;102293.39;1747738;81;20931;-78
2022/12/19 08:06:35;;;;;;;17.10;10.67;;;;;;;-3.86;95.08;102289.06;1760751;81;21002;-77
2022/12/19 08:09:02;;;;;;;16.07;10.80;;;;;;;-3.84;95.09;102282.41;1761425;81;21428;-78
2022/12/19 08:11:29;;;;;;;13.97;9.30;;;;;;;-3.81;94.98;102295.35;1755832;80;20990;-74
2022/12/19 08:13:56;;;;;;;17.33;11.23;;;;;;;-3.78;94.56;102299.95;1759011;81;20995;-74
2022/12/19 08:16:27;;;;;;;17.63;10.37;;;;;;;-3.77;94.28;102302.11;1730200;81;21010;-76
2022/12/19 08:18:54;;;;;;;20.23;11.40;;;;;;;-3.73;94.07;102312.81;1759112;81;21042;-80
2022/12/19 08:21:21;;;;;;;16.50;10.97;;;;;;;-3.67;94.14;102308.03;1760018;80;21186;-79
2022/12/19 08:23:48;;;;;;;15.57;10.23;;;;;;;-3.65;93.22;102318.00;1758678;80;20963;-77
2022/12/19 08:26:24;;;;;;;21.60;12.17;;;;;;;-3.66;92.95;102313.67;1758988;81;21014;-75
2022/12/19 08:28:47;;;;;;;;;;;;;;;-3.66;92.87;102311.52;1761167;81;20959;-77
2022/12/19 08:31:16;;;;;;;17.43;10.23;;;;;;;-3.63;92.88;102316.58;1756631;80;20228;-76
2022/12/19 08:33:45;;;;;;;13.80;9.20;;;;;;;-3.61;92.73;102311.61;1759212;81;21553;-77
2022/12/19 08:36:17;;;;;;;14.53;9.20;;;;;;;-3.60;92.18;102323.80;1759292;81;21062;-78
2022/12/19 08:38:43;;;;;;;18.57;12.37;;;;;;;-3.61;92.00;102318.66;1759563;80;21046;-77
2022/12/19 08:41:10;;;;;;;19.47;12.33;;;;;;;-3.61;91.91;102315.56;1758234;81;21055;-76
2022/12/19 08:43:37;;;;;;;15.37;11.00;;;;;;;-3.61;91.77;102309.45;1764456;80;21596;-75
2022/12/19 08:46:04;;;;;;;16.10;11.00;;;;;;;-3.62;91.57;102312.55;1755235;81;21200;-75
2022/12/19 08:48:31;;;;;;;15.10;9.17;;;;;;;-3.61;91.60;102314.70;1758397;80;21052;-74
2022/12/19 08:51:03;;;;;;;12.57;8.33;;;;;;;-3.60;91.34;102324.30;1760173;81;20989;-78
2022/12/19 08:53:30;;;;;;;14.50;9.70;;;;;;;-3.59;91.42;102329.44;1759187;81;21054;-75
2022/12/19 08:56:00;;;;;;;17.90;11.43;;;;;;;-3.56;91.39;102322.70;1760592;81;20998;-74
2022/12/19 08:58:28;;;;;;;15.37;10.77;;;;;;;-3.52;91.39;102318.09;1758591;80;21225;-75
2022/12/19 09:01:00;;;;;;;15.93;10.30;;;;;;;-3.44;91.42;102311.02;1758620;81;21049;-74
2022/12/19 09:03:28;;;;;;;13.05;8.43;;;;;;;-3.35;91.26;102319.65;1767258;81;21005;-76
2022/12/19 09:05:58;;;;;;;14.33;9.70;;;;;;;-3.30;91.07;102305.73;1766163;80;21046;-74
2022/12/19 09:08:25;;;;;;;13.67;9.83;;;;;;;-3.25;90.72;102304.98;1767380;79;21084;-76
2022/12/19 09:11:00;;;;;;;11.30;7.43;;;;;;;-3.24;90.25;102304.89;1755743;80;21238;-78
2022/12/19 09:13:30;;;;;;;13.33;8.93;;;;;;;-3.22;90.11;102300.39;1762855;80;21031;-78
2022/12/19 09:16:15;;;;;;;16.80;10.30;;;;;;;-3.17;90.15;102304.89;1776148;79;21097;-80
2022/12/19 09:18:45;;;;;;;10.33;8.50;;;;;;;-3.09;90.04;102297.34;1762265;80;20967;-77
2022/12/19 09:21:12;;;;;;;12.83;8.63;;;;;;;-3.00;89.60;102305.13;1762260;80;21098;-76
2022/12/19 09:23:40;;;;;;;15.23;9.43;;;;;;;-2.96;89.30;102307.08;1761854;80;21125;-77
2022/12/19 09:26:10;;;;;;;13.27;8.40;;;;;;;-2.94;88.97;102302.10;1770422;80;20989;-78
2022/12/19 09:28:38;;;;;;;14.10;10.00;;;;;;;-2.89;88.77;102304.44;1760853;81;21040;-78
2022/12/19 09:31:08;;;;;;;17.80;9.80;;;;;;;-2.84;88.78;102307.16;1761233;81;21660;-80
2022/12/19 09:33:35;;;;;;;19.93;12.70;;;;;;;-2.73;88.76;102303.33;1761251;81;21061;-80
2022/12/19 09:36:02;;;;;;;14.70;11.17;;;;;;;-2.66;88.09;102311.22;1760676;80;21130;-77
2022/12/19 09:38:33;;;;;;;15.83;10.50;;;;;;;-2.64;87.64;102313.27;1736106;81;20998;-77
2022/12/19 09:41:41;;;;;;;22.50;11.10;;;;;;;-2.61;87.25;102310.06;1761784;81;20982;-78
2022/12/19 09:44:20;;;;;;;16.43;9.90;;;;;;;-2.59;87.13;102309.04;1759783;81;20957;-75
2022/12/19 09:46:50;;;;;;;16.67;9.53;;;;;;;-2.52;86.93;102305.03;1771480;80;21059;-79
2022/12/19 09:49:23;;;;;;;15.28;9.28;;;;;;;-2.46;86.42;102306.42;1761502;80;21070;-81
2022/12/19 09:52:14;;;;;;;13.53;9.70;;;;;;;-2.43;86.04;102304.89;1760967;81;21279;-92
2022/12/19 09:54:52;;;;;;;13.37;8.97;;;;;;;-2.35;86.00;102307.89;1759992;81;21046;-80
2022/12/19 09:58:16;;;;;;;12.70;8.87;;;;;;;-2.30;85.52;102306.61;1769124;80;21100;-76
2022/12/19 10:00:57;;;;;;;10.80;7.92;;;;;;;-2.25;85.14;102301.88;1780265;79;21443;-80
2022/12/19 10:03:36;;;;;;;13.30;8.63;;;;;;;-2.29;83.76;102297.76;1752703;81;21508;-80
2022/12/19 10:06:21;;;;;;;10.57;7.93;;;;;;;-2.37;83.24;102303.18;1754703;80;21531;-81
2022/12/19 14:37:36;;;;;;;28.93;17.40;;;;;;;-2.76;84.33;102201.30;1802525;77;25306;-72
2022/12/19 14:40:25;;;;;;;28.43;17.90;;;;;;;-2.71;84.18;102208.42;1807395;79;20939;-72
2022/12/19 14:45:46;;;;;;;35.53;21.43;;;;;;;-2.54;83.95;102210.75;1807165;79;21065;-74
2022/12/19 14:48:34;;;;;;;31.00;20.07;;;;;;;-2.44;83.90;102217.09;1831558;78;21539;-75
2022/12/19 14:51:11;;;;;;;34.37;19.00;;;;;;;-2.36;83.63;102213.95;1784153;79;21271;-74
2022/12/19 14:53:40;;;;;;;32.50;19.53;;;;;;;-2.30;83.47;102216.99;1762388;81;20979;-73
2022/12/19 14:56:16;;;;;;;30.40;20.93;;;;;;;-2.25;83.06;102216.67;1757923;81;21869;-73
2022/12/19 14:58:43;;;;;;;32.90;21.43;;;;;;;-2.23;82.94;102217.42;1785002;79;20968;-72
2022/12/19 15:01:28;;;;;;;26.20;17.13;;;;;;;-2.18;82.82;102216.64;1774506;79;20984;-72
2022/12/19 15:04:07;;;;;;;31.87;18.63;;;;;;;-2.13;82.68;102213.22;1804251;79;21019;-73
2022/12/19 15:06:33;;;;;;;30.93;19.07;;;;;;;-2.09;82.46;102211.20;1807214;78;20952;-76
2022/12/19 15:09:03;;;;;;;33.93;21.87;;;;;;;-2.00;82.44;102204.81;1797955;79;21090;-77
2022/12/19 15:14:27;;;;;;;40.40;24.70;;;;;;;-1.90;81.92;102192.67;1772922;80;21492;-82
2022/12/19 15:17:05;;;;;;;39.30;25.70;;;;;;;-1.82;81.70;102194.28;1803563;79;20996;-81
2022/12/19 15:19:33;;;;;;;50.93;29.37;;;;;;;-1.77;81.44;102194.80;1806073;79;21675;-78
2022/12/19 15:21:59;;;;;;;61.03;39.47;;;;;;;-1.70;81.15;102193.05;1808995;78;21856;-80
2022/12/19 15:24:27;;;;;;;37.33;23.77;;;;;;;-1.74;80.60;102195.08;1809751;78;21618;-78
2022/12/19 15:26:54;;;;;;;46.63;26.83;;;;;;;-1.78;80.43;102195.78;1790121;80;21005;-77
2022/12/19 15:29:27;;;;;;;37.03;23.57;;;;;;;-1.84;80.49;102199.31;1778375;79;20988;-78
2022/12/19 15:31:57;;;;;;;38.20;23.13;;;;;;;-1.81;80.85;102198.61;1833696;78;21067;-84
2022/12/19 15:34:33;;;;;;;54.87;34.10;;;;;;;-1.78;80.61;102199.73;1807789;79;21652;-78
2022/12/19 15:37:01;;;;;;;63.27;37.00;;;;;;;-1.78;80.42;102197.09;1754748;79;21504;-78
2022/12/19 15:39:29;;;;;;;40.97;25.60;;;;;;;-1.84;80.05;102200.16;1726929;82;21575;-78
2022/12/19 15:42:00;;;;;;;44.80;28.93;;;;;;;-1.99;80.15;102198.59;1785615;79;21027;-78
2022/12/19 15:44:40;;;;;;;38.17;24.77;;;;;;;-2.04;80.47;102198.06;1732134;82;21115;-79
2022/12/19 15:47:18;;;;;;;42.23;25.43;;;;;;;-2.06;80.74;102202.59;1731981;82;21241;-85
2022/12/19 15:49:45;;;;;;;40.73;24.57;;;;;;;-2.04;80.93;102201.17;1716504;82;20957;-78
2022/12/19 15:52:18;;;;;;;35.90;23.47;;;;;;;-2.05;80.87;102210.88;1730704;82;20947;-74
2022/12/19 15:54:45;;;;;;;33.80;22.60;;;;;;;-2.06;81.11;102211.01;1736447;81;21022;-77
2022/12/19 15:57:27;;;;;;;27.63;19.33;;;;;;;-2.07;81.01;102208.84;1752147;81;21121;-78
2022/12/19 15:59:57;;;;;;;34.70;21.07;;;;;;;-2.09;81.12;102204.14;1733235;82;21183;-78
2022/12/19 16:02:26;;;;;;;39.57;23.47;;;;;;;-2.10;81.07;102205.55;1773311;79;22223;-79
2022/12/19 16:04:53;;;;;;;40.70;25.97;;;;;;;-2.12;81.22;102207.47;1762313;81;21519;-79
2022/12/19 16:07:23;;;;;;;39.63;23.40;;;;;;;-2.17;80.91;102213.06;1731152;82;21018;-77
2022/12/19 16:09:50;;;;;;;35.00;20.07;;;;;;;-2.21;81.13;102215.04;1756305;81;21465;-75
2022/12/19 16:12:26;;;;;;;38.00;23.90;;;;;;;-2.22;81.24;102217.33;1757070;80;22348;-76
2022/12/19 16:14:56;;;;;;;;;;;;;;;-2.24;81.43;102212.63;1761650;81;20998;-75
2022/12/19 16:17:23;;;;;;;34.83;21.63;;;;;;;-2.22;81.49;102211.22;1734879;81;20177;-76
2022/12/19 16:19:50;;;;;;;33.87;20.87;;;;;;;-2.24;81.45;102209.99;1733222;81;21057;-74
2022/12/19 16:22:26;;;;;;;36.40;22.27;;;;;;;-2.24;81.56;102213.09;1758865;81;21169;-77
2022/12/19 16:24:52;;;;;;;40.73;23.63;;;;;;;-2.27;81.47;102206.26;1754393;80;21123;-80
2022/12/19 16:27:24;;;;;;;37.07;23.73;;;;;;;-2.29;81.56;102205.51;1808949;77;20975;-78
2022/12/19 16:29:51;;;;;;;39.80;23.13;;;;;;;-2.30;81.59;102204.28;1811817;79;20967;-80
2022/12/19 16:32:18;;;;;;;37.03;22.10;;;;;;;-2.33;81.68;102197.92;1811701;79;21014;-76
2022/12/19 16:34:47;;;;;;;63.23;38.60;;;;;;;-2.32;81.84;102197.82;1812752;79;21630;-77
2022/12/19 16:40:18;;;;;;;38.15;24.67;;;;;;;-2.39;81.49;102196.54;1812757;79;21570;-78
2022/12/19 16:42:45;;;;;;;41.53;23.17;;;;;;;-2.38;81.92;102190.33;1811816;79;21033;-76
2022/12/19 16:45:19;;;;;;;45.87;28.67;;;;;;;-2.34;82.00;102189.63;1811213;78;20915;-76
2022/12/19 16:47:46;;;;;;;38.63;22.53;;;;;;;-2.31;81.96;102189.45;1812285;79;21090;-76
2022/12/19 16:50:24;;;;;;;37.73;23.07;;;;;;;-2.28;82.05;102179.53;1810259;79;21259;-75
2022/12/19 16:52:52;;;;;;;37.73;22.67;;;;;;;-2.16;82.23;102179.64;1813058;79;21059;-76
2022/12/19 16:55:22;;;;;;;43.80;23.23;;;;;;;-2.08;82.00;102174.66;1813451;79;21543;-77
2022/12/19 16:57:50;;;;;;;40.90;22.47;;;;;;;-2.06;81.84;102177.55;1812630;79;21063;-76
2022/12/19 17:00:21;;;;;;;39.83;23.60;;;;;;;-2.10;81.44;102168.64;1811020;79;20908;-77
2022/12/19 17:02:56;;;;;;;36.20;22.50;;;;;;;-2.07;81.57;102168.45;1812996;77;21083;-80
2022/12/19 17:05:26;;;;;;;41.30;25.40;;;;;;;-2.01;81.52;102161.40;1788861;78;21052;-77
2022/12/19 17:07:53;;;;;;;37.03;24.90;;;;;;;-2.03;81.48;102148.34;1813580;77;21548;-83
2022/12/19 17:10:23;;;;;;;35.60;25.13;;;;;;;-2.03;81.54;102152.30;1813133;79;20916;-76
2022/12/19 17:12:49;;;;;;;42.67;24.83;;;;;;;-2.05;81.47;102147.59;1803605;79;21008;-89
2022/12/19 17:15:43;;;;;;;38.40;22.90;;;;;;;-2.09;81.35;102148.77;1803322;79;21191;-90
2022/12/19 17:18:32;;;;;;;44.00;29.93;;;;;;;-2.08;81.50;102150.94;1812506;79;21572;-87
2022/12/19 17:21:02;;;;;;;50.13;30.77;;;;;;;-2.12;81.38;102137.13;1806709;79;21004;-83
2022/12/19 17:23:31;;;;;;;51.17;31.40;;;;;;;-2.23;81.27;102135.24;1801017;77;21580;-76
2022/12/19 17:25:59;;;;;;;54.50;34.43;;;;;;;-2.25;81.65;102131.02;1808455;79;20990;-74
2022/12/19 17:28:28;;;;;;;47.97;32.70;;;;;;;-2.31;81.58;102129.67;1809224;77;21341;-79
2022/12/19 17:30:58;;;;;;;60.30;33.73;;;;;;;-2.36;81.84;102129.63;1814441;79;20923;-81
2022/12/19 17:33:34;;;;;;;65.40;40.27;;;;;;;-2.42;81.97;102120.81;1810911;79;21531;-80
2022/12/19 17:36:02;;;;;;;63.83;37.13;;;;;;;-2.49;82.12;102126.13;1810871;79;21079;-85
2022/12/19 17:38:49;;;;;;;57.63;36.43;;;;;;;-2.57;82.43;102127.14;1747531;80;21142;-89
2022/12/19 17:41:27;;;;;;;56.03;34.30;;;;;;;-2.62;82.63;102118.70;1785706;79;22222;-90
2022/12/19 17:44:00;;;;;;;61.17;37.20;;;;;;;-2.68;82.90;102117.33;1797645;79;21504;-78
2022/12/19 17:46:29;;;;;;;55.83;36.40;;;;;;;-2.73;83.18;102109.75;1805550;78;21463;-78
2022/12/19 17:48:56;;;;;;;53.87;31.53;;;;;;;-2.76;83.37;102106.48;1754007;80;21590;-79
2022/12/19 17:51:24;;;;;;;65.30;35.30;;;;;;;-2.82;83.52;102104.27;1785059;79;21504;-78
2022/12/19 17:53:51;;;;;;;63.77;32.90;;;;;;;-2.87;83.87;102103.26;1806913;79;21490;-75
2022/12/19 17:56:19;;;;;;;67.70;34.53;;;;;;;-2.92;84.08;102108.46;1795288;78;21495;-79
2022/12/19 17:58:47;;;;;;;56.07;32.00;;;;;;;-2.94;84.36;102108.59;1774486;79;22089;-79
2022/12/19 18:01:22;;;;;;;53.57;31.07;;;;;;;-2.95;84.69;102112.16;1806784;78;20999;-77
2022/12/19 18:03:50;;;;;;;60.90;38.50;;;;;;;-2.93;84.89;102113.39;1775071;80;20976;-73
2022/12/19 18:06:17;;;;;;;71.10;40.93;;;;;;;-2.88;84.92;102112.60;1776130;79;21110;-76
2022/12/19 18:08:43;;;;;;;58.23;33.63;;;;;;;-2.89;84.79;102113.55;1792262;79;21051;-77
2022/12/19 18:11:23;;;;;;;60.53;37.13;;;;;;;-2.90;84.86;102111.37;1761939;80;20979;-78
2022/12/19 18:13:50;;;;;;;61.20;38.23;;;;;;;-2.91;84.90;102115.42;1805411;79;20931;-73
2022/12/19 18:16:20;;;;;;;51.97;32.00;;;;;;;-3.00;84.89;102110.31;1797108;79;21058;-74
2022/12/19 18:18:47;;;;;;;49.17;31.90;;;;;;;-3.04;85.19;102111.94;1794885;79;21121;-73
2022/12/19 18:21:16;;;;;;;46.07;28.47;;;;;;;-3.06;85.42;102114.66;1796607;79;21002;-75
2022/12/19 18:23:43;;;;;;;47.83;30.33;;;;;;;-3.10;85.57;102107.92;1806167;79;21618;-79
2022/12/19 18:26:13;;;;;;;49.23;30.00;;;;;;;-3.14;85.86;102107.29;1800241;78;20880;-76
2022/12/19 18:28:39;;;;;;;49.43;31.13;;;;;;;-3.16;86.03;102109.16;1806614;79;21530;-72
